Munson Island, Florida
Current Conditions -  °F | °C
As of 4:53 PM on Friday 31 Oct 2014 (Local Time) from KNQX Reporting Station
Broken Clouds Broken Clouds  
Wind Chill: 82°   Ceiling: 5000
Heat Index: 86°   Visibility: 10mi
Dew Point: 70°   Wind: 16mph
Humidity: 67%   Direction: 330°NNW
Pressure: 29.83"   Gusts: NA
Location:  24.5796°N, 81.6849°W
Report Text: KNQX 312053Z 33014KT 10SM FEW020 SCT030 BKN050 28/21 A2983 RMK AO2 SLP100 T02780211 55006 $
Loading
Personal Weather Stations






























Interactive Weather Map New forecast layout! Learn more

10-Day Weather Forecast

Advertisements
Track Severe Weather on mobile